Terminal Aerodrome Forecast
Issued by NWS Quad Cities IA IL

Home | Current Version | Previous Version | Text Only | Print | Product List | Glossary On
Versions: 1 2 3 4 5 6 7 8 9 10 11 12 13 14 15 16 17
000
FTUS43 KDVN 191124
TAFDBQ
TAF
KDBQ 191124Z 1912/2012 32012KT P6SM OVC015
     FM191600 34012KT P6SM BKN025
     FM192000 35008KT P6SM FEW035 SCT250
     FM201000 02006KT P6SM SCT070 OVC150=

USA.gov is the U.S. government's official web portal to all federal, state and local government web resources and services.